sensor_id;sensor_type;location;lat;lon;timestamp;pressure;altitude;pressure_sealevel;temperature;humidity
45255;BME280;30989;52.078;21.014;2024-01-11T00:01:31;161989.53;;;-6.74;100.00
45255;BME280;30989;52.078;21.014;2024-01-11T00:03:57;161988.22;;;-6.74;100.00
45255;BME280;30989;52.078;21.014;2024-01-11T00:06:22;161971.03;;;-6.81;100.00
45255;BME280;30989;52.078;21.014;2024-01-11T00:08:48;162001.44;;;-6.69;100.00
45255;BME280;30989;52.078;21.014;2024-01-11T00:11:13;161982.94;;;-6.76;100.00
45255;BME280;30989;52.078;21.014;2024-01-11T00:13:38;162006.75;;;-6.67;100.00
45255;BME280;30989;52.078;21.014;2024-01-11T00:16:04;162005.41;;;-6.68;100.00
45255;BME280;30989;52.078;21.014;2024-01-11T00:18:30;161998.81;;;-6.70;100.00
45255;BME280;30989;52.078;21.014;2024-01-11T00:20:58;162017.31;;;-6.63;100.00
45255;BME280;30989;52.078;21.014;2024-01-11T00:23:24;162012.03;;;-6.65;100.00
45255;BME280;30989;52.078;21.014;2024-01-11T00:25:49;162017.31;;;-6.63;100.00
45255;BME280;30989;52.078;21.014;2024-01-11T00:28:15;162031.88;;;-6.58;100.00
45255;BME280;30989;52.078;21.014;2024-01-11T00:30:41;162038.50;;;-6.55;100.00
45255;BME280;30989;52.078;21.014;2024-01-11T00:33:06;162047.75;;;-6.52;100.00
45255;BME280;30989;52.078;21.014;2024-01-11T00:35:32;162046.44;;;-6.52;100.00
45255;BME280;30989;52.078;21.014;2024-01-11T00:37:57;162057.00;;;-6.48;100.00
45255;BME280;30989;52.078;21.014;2024-01-11T00:40:22;162051.72;;;-6.50;100.00
45255;BME280;30989;52.078;21.014;2024-01-11T00:42:48;162072.88;;;-6.42;100.00
45255;BME280;30989;52.078;21.014;2024-01-11T00:45:16;162072.88;;;-6.42;100.00
45255;BME280;30989;52.078;21.014;2024-01-11T00:47:42;162072.88;;;-6.42;100.00
45255;BME280;30989;52.078;21.014;2024-01-11T00:50:07;162067.59;;;-6.44;100.00
45255;BME280;30989;52.078;21.014;2024-01-11T00:52:34;162086.13;;;-6.37;100.00
45255;BME280;30989;52.078;21.014;2024-01-11T00:55:00;162102.00;;;-6.31;100.00
45255;BME280;30989;52.078;21.014;2024-01-11T00:57:25;162096.69;;;-6.33;100.00
45255;BME280;30989;52.078;21.014;2024-01-11T00:59:53;162109.94;;;-6.28;100.00
45255;BME280;30989;52.078;21.014;2024-01-11T01:02:23;162112.59;;;-6.27;100.00
45255;BME280;30989;52.078;21.014;2024-01-11T01:04:49;162123.16;;;-6.23;100.00
45255;BME280;30989;52.078;21.014;2024-01-11T01:07:14;162131.09;;;-6.20;100.00
45255;BME280;30989;52.078;21.014;2024-01-11T01:09:43;162128.47;;;-6.21;100.00
45255;BME280;30989;52.078;21.014;2024-01-11T01:12:11;162112.59;;;-6.27;100.00
45255;BME280;30989;52.078;21.014;2024-01-11T01:14:36;162141.69;;;-6.15;100.00
45255;BME280;30989;52.078;21.014;2024-01-11T01:17:02;162137.72;;;-6.17;100.00
45255;BME280;30989;52.078;21.014;2024-01-11T01:19:34;162131.09;;;-6.20;100.00
45255;BME280;30989;52.078;21.014;2024-01-11T01:22:05;162131.09;;;-6.20;100.00
45255;BME280;30989;52.078;21.014;2024-01-11T01:24:31;162115.22;;;-6.26;100.00
45255;BME280;30989;52.078;21.014;2024-01-11T01:26:57;162120.53;;;-6.24;100.00
45255;BME280;30989;52.078;21.014;2024-01-11T01:29:26;162133.75;;;-6.19;100.00
45255;BME280;30989;52.078;21.014;2024-01-11T01:31:51;162131.09;;;-6.20;100.00
45255;BME280;30989;52.078;21.014;2024-01-11T01:34:17;162148.31;;;-6.13;100.00
45255;BME280;30989;52.078;21.014;2024-01-11T01:36:42;162124.50;;;-6.22;100.00
45255;BME280;30989;52.078;21.014;2024-01-11T01:39:08;162145.66;;;-6.14;100.00
45255;BME280;30989;52.078;21.014;2024-01-11T01:41:33;162140.38;;;-6.16;100.00
45255;BME280;30989;52.078;21.014;2024-01-11T01:43:59;162133.75;;;-6.19;100.00
45255;BME280;30989;52.078;21.014;2024-01-11T01:46:25;162120.53;;;-6.24;100.00
45255;BME280;30989;52.078;21.014;2024-01-11T01:48:57;162112.59;;;-6.27;100.00
45255;BME280;30989;52.078;21.014;2024-01-11T01:51:25;162113.91;;;-6.26;100.00
45255;BME280;30989;52.078;21.014;2024-01-11T01:53:52;162103.31;;;-6.30;100.00
45255;BME280;30989;52.078;21.014;2024-01-11T01:56:19;162098.03;;;-6.32;100.00
45255;BME280;30989;52.078;21.014;2024-01-11T01:58:50;162102.00;;;-6.31;100.00
45255;BME280;30989;52.078;21.014;2024-01-11T02:01:17;162099.34;;;-6.32;100.00
45255;BME280;30989;52.078;21.014;2024-01-11T02:03:45;162104.66;;;-6.30;100.00
45255;BME280;30989;52.078;21.014;2024-01-11T02:06:11;162102.00;;;-6.31;100.00
45255;BME280;30989;52.078;21.014;2024-01-11T02:08:37;162090.09;;;-6.35;100.00
45255;BME280;30989;52.078;21.014;2024-01-11T02:11:05;162104.66;;;-6.30;100.00
45255;BME280;30989;52.078;21.014;2024-01-11T02:13:31;162104.66;;;-6.30;100.00
45255;BME280;30989;52.078;21.014;2024-01-11T02:16:00;162103.31;;;-6.30;100.00
45255;BME280;30989;52.078;21.014;2024-01-11T02:18:25;162098.03;;;-6.32;100.00
45255;BME280;30989;52.078;21.014;2024-01-11T02:20:51;162092.72;;;-6.34;100.00
45255;BME280;30989;52.078;21.014;2024-01-11T02:23:21;162086.13;;;-6.37;100.00
45255;BME280;30989;52.078;21.014;2024-01-11T02:25:47;162083.47;;;-6.38;100.00
45255;BME280;30989;52.078;21.014;2024-01-11T02:28:12;162072.88;;;-6.42;100.00
45255;BME280;30989;52.078;21.014;2024-01-11T02:30:37;162054.38;;;-6.49;100.00
45255;BME280;30989;52.078;21.014;2024-01-11T02:33:06;162064.94;;;-6.45;100.00
45255;BME280;30989;52.078;21.014;2024-01-11T02:35:33;162060.97;;;-6.46;100.00
45255;BME280;30989;52.078;21.014;2024-01-11T02:38:00;162054.38;;;-6.49;100.00
45255;BME280;30989;52.078;21.014;2024-01-11T02:40:26;162054.38;;;-6.49;100.00
45255;BME280;30989;52.078;21.014;2024-01-11T02:42:51;162051.72;;;-6.50;100.00
45255;BME280;30989;52.078;21.014;2024-01-11T02:45:17;162041.13;;;-6.54;100.00
45255;BME280;30989;52.078;21.014;2024-01-11T02:47:44;162038.50;;;-6.55;100.00
45255;BME280;30989;52.078;21.014;2024-01-11T02:50:10;162017.31;;;-6.63;100.00
45255;BME280;30989;52.078;21.014;2024-01-11T02:52:39;162031.88;;;-6.58;100.00
45255;BME280;30989;52.078;21.014;2024-01-11T02:55:04;162025.25;;;-6.60;100.00
45255;BME280;30989;52.078;21.014;2024-01-11T02:57:30;162014.69;;;-6.64;100.00
45255;BME280;30989;52.078;21.014;2024-01-11T02:59:55;162038.50;;;-6.55;100.00
45255;BME280;30989;52.078;21.014;2024-01-11T03:02:21;162031.88;;;-6.58;100.00
45255;BME280;30989;52.078;21.014;2024-01-11T03:04:46;162049.06;;;-6.51;100.00
45255;BME280;30989;52.078;21.014;2024-01-11T03:07:12;162051.72;;;-6.50;100.00
45255;BME280;30989;52.078;21.014;2024-01-11T03:09:38;162053.03;;;-6.50;100.00
45255;BME280;30989;52.078;21.014;2024-01-11T03:12:03;162059.66;;;-6.47;100.00
45255;BME280;30989;52.078;21.014;2024-01-11T03:14:29;162062.31;;;-6.46;100.00
45255;BME280;30989;52.078;21.014;2024-01-11T03:16:54;162041.13;;;-6.54;100.00
45255;BME280;30989;52.078;21.014;2024-01-11T03:19:23;162053.03;;;-6.50;100.00
45255;BME280;30989;52.078;21.014;2024-01-11T03:21:48;162054.38;;;-6.49;100.00
45255;BME280;30989;52.078;21.014;2024-01-11T03:24:14;162046.44;;;-6.52;100.00
45255;BME280;30989;52.078;21.014;2024-01-11T03:26:41;162037.16;;;-6.56;100.00
45255;BME280;30989;52.078;21.014;2024-01-11T03:29:06;162010.72;;;-6.66;100.00
45255;BME280;30989;52.078;21.014;2024-01-11T03:31:31;162017.31;;;-6.63;100.00
45255;BME280;30989;52.078;21.014;2024-01-11T03:33:57;162021.28;;;-6.62;100.00
45255;BME280;30989;52.078;21.014;2024-01-11T03:36:24;162014.69;;;-6.64;100.00
45255;BME280;30989;52.078;21.014;2024-01-11T03:38:50;162005.41;;;-6.68;100.00
45255;BME280;30989;52.078;21.014;2024-01-11T03:41:15;161993.50;;;-6.72;100.00
45255;BME280;30989;52.078;21.014;2024-01-11T03:43:41;161993.50;;;-6.72;100.00
45255;BME280;30989;52.078;21.014;2024-01-11T03:46:06;161996.16;;;-6.71;100.00
45255;BME280;30989;52.078;21.014;2024-01-11T03:48:31;161992.19;;;-6.73;100.00
45255;BME280;30989;52.078;21.014;2024-01-11T03:51:00;161990.88;;;-6.73;100.00
45255;BME280;30989;52.078;21.014;2024-01-11T03:53:25;161980.28;;;-6.77;100.00
45255;BME280;30989;52.078;21.014;2024-01-11T03:55:50;161981.59;;;-6.77;100.00
45255;BME280;30989;52.078;21.014;2024-01-11T03:58:16;161972.34;;;-6.80;100.00
45255;BME280;30989;52.078;21.014;2024-01-11T04:00:41;161980.28;;;-6.77;100.00
45255;BME280;30989;52.078;21.014;2024-01-11T04:03:07;161986.91;;;-6.75;100.00
45255;BME280;30989;52.078;21.014;2024-01-11T04:05:32;161988.22;;;-6.74;100.00
45255;BME280;30989;52.078;21.014;2024-01-11T04:07:58;161985.56;;;-6.75;100.00
45255;BME280;30989;52.078;21.014;2024-01-11T04:10:23;161985.56;;;-6.75;100.00
45255;BME280;30989;52.078;21.014;2024-01-11T04:12:49;161986.91;;;-6.75;100.00
45255;BME280;30989;52.078;21.014;2024-01-11T04:15:14;161989.53;;;-6.74;100.00
45255;BME280;30989;52.078;21.014;2024-01-11T04:17:40;161994.84;;;-6.72;100.00
45255;BME280;30989;52.078;21.014;2024-01-11T04:20:06;161998.81;;;-6.70;100.00
45255;BME280;30989;52.078;21.014;2024-01-11T04:22:32;161996.16;;;-6.71;100.00
45255;BME280;30989;52.078;21.014;2024-01-11T04:24:57;162012.03;;;-6.65;100.00
45255;BME280;30989;52.078;21.014;2024-01-11T04:27:23;162006.75;;;-6.67;100.00
45255;BME280;30989;52.078;21.014;2024-01-11T04:29:48;162025.25;;;-6.60;100.00
45255;BME280;30989;52.078;21.014;2024-01-11T04:32:14;162014.69;;;-6.64;100.00
45255;BME280;30989;52.078;21.014;2024-01-11T04:34:39;162023.94;;;-6.61;100.00
45255;BME280;30989;52.078;21.014;2024-01-11T04:37:11;162023.94;;;-6.61;100.00
45255;BME280;30989;52.078;21.014;2024-01-11T04:39:37;162016.00;;;-6.64;100.00
45255;BME280;30989;52.078;21.014;2024-01-11T04:42:02;162014.69;;;-6.64;100.00
45255;BME280;30989;52.078;21.014;2024-01-11T04:44:28;161994.84;;;-6.72;100.00
45255;BME280;30989;52.078;21.014;2024-01-11T04:46:53;162017.31;;;-6.63;100.00
45255;BME280;30989;52.078;21.014;2024-01-11T04:49:25;162027.91;;;-6.59;100.00
45255;BME280;30989;52.078;21.014;2024-01-11T04:51:51;162033.19;;;-6.57;100.00
45255;BME280;30989;52.078;21.014;2024-01-11T04:54:16;162030.56;;;-6.58;100.00
45255;BME280;30989;52.078;21.014;2024-01-11T04:56:42;162045.09;;;-6.53;100.00
45255;BME280;30989;52.078;21.014;2024-01-11T04:59:07;162012.03;;;-6.65;100.00
45255;BME280;30989;52.078;21.014;2024-01-11T05:01:33;162054.38;;;-6.49;100.00
45255;BME280;30989;52.078;21.014;2024-01-11T05:03:58;162059.66;;;-6.47;100.00
45255;BME280;30989;52.078;21.014;2024-01-11T05:06:23;162068.91;;;-6.43;100.00
45255;BME280;30989;52.078;21.014;2024-01-11T05:08:50;162057.00;;;-6.48;100.00
45255;BME280;30989;52.078;21.014;2024-01-11T05:11:17;162070.25;;;-6.43;100.00
45255;BME280;30989;52.078;21.014;2024-01-11T05:13:43;162050.41;;;-6.51;100.00
45255;BME280;30989;52.078;21.014;2024-01-11T05:16:24;162043.78;;;-6.53;100.00
45255;BME280;30989;52.078;21.014;2024-01-11T05:18:51;162059.66;;;-6.47;100.00
45255;BME280;30989;52.078;21.014;2024-01-11T05:21:17;162064.94;;;-6.45;100.00
45255;BME280;30989;52.078;21.014;2024-01-11T05:23:43;162054.38;;;-6.49;100.00
45255;BME280;30989;52.078;21.014;2024-01-11T05:26:09;162038.50;;;-6.55;100.00
45255;BME280;30989;52.078;21.014;2024-01-11T05:28:34;162027.91;;;-6.59;100.00
45255;BME280;30989;52.078;21.014;2024-01-11T05:31:00;162013.34;;;-6.65;100.00
45255;BME280;30989;52.078;21.014;2024-01-11T05:33:26;162004.09;;;-6.68;100.00
45255;BME280;30989;52.078;21.014;2024-01-11T05:35:52;162017.31;;;-6.63;100.00
45255;BME280;30989;52.078;21.014;2024-01-11T05:38:19;162037.16;;;-6.56;100.00
45255;BME280;30989;52.078;21.014;2024-01-11T05:40:44;162037.16;;;-6.56;100.00
45255;BME280;30989;52.078;21.014;2024-01-11T05:43:10;162034.53;;;-6.57;100.00
45255;BME280;30989;52.078;21.014;2024-01-11T05:45:38;162030.56;;;-6.58;100.00
45255;BME280;30989;52.078;21.014;2024-01-11T05:48:04;162013.34;;;-6.65;100.00
45255;BME280;30989;52.078;21.014;2024-01-11T05:50:31;162041.13;;;-6.54;100.00
45255;BME280;30989;52.078;21.014;2024-01-11T05:52:59;162041.13;;;-6.54;100.00
45255;BME280;30989;52.078;21.014;2024-01-11T05:55:25;162046.44;;;-6.52;100.00
45255;BME280;30989;52.078;21.014;2024-01-11T05:57:50;162042.47;;;-6.54;100.00
45255;BME280;30989;52.078;21.014;2024-01-11T06:00:16;162058.34;;;-6.47;100.00
45255;BME280;30989;52.078;21.014;2024-01-11T06:02:42;162054.38;;;-6.49;100.00
45255;BME280;30989;52.078;21.014;2024-01-11T06:05:08;162051.72;;;-6.50;100.00
45255;BME280;30989;52.078;21.014;2024-01-11T06:07:35;162067.59;;;-6.44;100.00
45255;BME280;30989;52.078;21.014;2024-01-11T06:10:01;162054.38;;;-6.49;100.00
45255;BME280;30989;52.078;21.014;2024-01-11T06:12:28;162057.00;;;-6.48;100.00
45255;BME280;30989;52.078;21.014;2024-01-11T06:14:53;162074.22;;;-6.41;100.00
45255;BME280;30989;52.078;21.014;2024-01-11T06:17:19;162083.47;;;-6.38;100.00
45255;BME280;30989;52.078;21.014;2024-01-11T06:19:45;162086.13;;;-6.37;100.00
45255;BME280;30989;52.078;21.014;2024-01-11T06:22:10;162086.13;;;-6.37;100.00
45255;BME280;30989;52.078;21.014;2024-01-11T06:24:35;162099.34;;;-6.32;100.00
45255;BME280;30989;52.078;21.014;2024-01-11T06:27:01;162092.72;;;-6.34;100.00
45255;BME280;30989;52.078;21.014;2024-01-11T06:29:27;162108.63;;;-6.28;100.00
45255;BME280;30989;52.078;21.014;2024-01-11T06:31:52;162112.59;;;-6.27;100.00
45255;BME280;30989;52.078;21.014;2024-01-11T06:34:18;162108.63;;;-6.28;100.00
45255;BME280;30989;52.078;21.014;2024-01-11T06:36:43;162128.47;;;-6.21;100.00
45255;BME280;30989;52.078;21.014;2024-01-11T06:39:12;162144.34;;;-6.14;100.00
45255;BME280;30989;52.078;21.014;2024-01-11T06:41:38;162140.38;;;-6.16;100.00
45255;BME280;30989;52.078;21.014;2024-01-11T06:44:03;162161.53;;;-6.08;100.00
45255;BME280;30989;52.078;21.014;2024-01-11T06:46:29;162156.25;;;-6.10;100.00
45255;BME280;30989;52.078;21.014;2024-01-11T06:48:54;162173.47;;;-6.03;100.00
45255;BME280;30989;52.078;21.014;2024-01-11T06:51:23;162184.03;;;-5.99;100.00
45255;BME280;30989;52.078;21.014;2024-01-11T06:53:49;162186.69;;;-5.98;100.00
45255;BME280;30989;52.078;21.014;2024-01-11T06:56:16;162193.31;;;-5.96;100.00
45255;BME280;30989;52.078;21.014;2024-01-11T06:58:43;162199.94;;;-5.93;100.00
45255;BME280;30989;52.078;21.014;2024-01-11T07:01:08;162207.88;;;-5.90;100.00
45255;BME280;30989;52.078;21.014;2024-01-11T07:03:34;162195.97;;;-5.95;100.00
45255;BME280;30989;52.078;21.014;2024-01-11T07:06:03;162219.72;;;-5.86;100.00
45255;BME280;30989;52.078;21.014;2024-01-11T07:08:29;162231.66;;;-5.81;100.00
45255;BME280;30989;52.078;21.014;2024-01-11T07:10:55;162223.69;;;-5.84;100.00
45255;BME280;30989;52.078;21.014;2024-01-11T07:13:21;162234.28;;;-5.80;100.00
45255;BME280;30989;52.078;21.014;2024-01-11T07:15:49;162248.84;;;-5.74;100.00
45255;BME280;30989;52.078;21.014;2024-01-11T07:18:17;162250.19;;;-5.74;100.00
45255;BME280;30989;52.078;21.014;2024-01-11T07:20:42;162243.56;;;-5.76;100.00
45255;BME280;30989;52.078;21.014;2024-01-11T07:23:09;162248.84;;;-5.74;100.00
45255;BME280;30989;52.078;21.014;2024-01-11T07:25:34;162270.03;;;-5.66;100.00
45255;BME280;30989;52.078;21.014;2024-01-11T07:28:01;162285.91;;;-5.60;100.00
45255;BME280;30989;52.078;21.014;2024-01-11T07:30:29;162296.50;;;-5.56;100.00
45255;BME280;30989;52.078;21.014;2024-01-11T07:32:54;162299.16;;;-5.55;100.00
45255;BME280;30989;52.078;21.014;2024-01-11T07:35:20;162293.88;;;-5.57;100.00
45255;BME280;30989;52.078;21.014;2024-01-11T07:37:48;162317.69;;;-5.48;100.00
45255;BME280;30989;52.078;21.014;2024-01-11T07:40:15;162330.94;;;-5.43;100.00
45255;BME280;30989;52.078;21.014;2024-01-11T07:42:47;162342.84;;;-5.38;100.00
45255;BME280;30989;52.078;21.014;2024-01-11T07:45:13;162358.75;;;-5.32;100.00
45255;BME280;30989;52.078;21.014;2024-01-11T07:47:42;162375.97;;;-5.26;100.00
45255;BME280;30989;52.078;21.014;2024-01-11T07:50:08;162387.88;;;-5.21;100.00
45255;BME280;30989;52.078;21.014;2024-01-11T07:52:37;162395.88;;;-5.18;100.00
45255;BME280;30989;52.078;21.014;2024-01-11T07:55:04;162406.47;;;-5.14;100.00
45255;BME280;30989;52.078;21.014;2024-01-11T07:57:37;162402.50;;;-5.15;100.00
45255;BME280;30989;52.078;21.014;2024-01-11T08:00:04;162398.53;;;-5.17;100.00
45255;BME280;30989;52.078;21.014;2024-01-11T08:02:38;162417.06;;;-5.10;100.00
45255;BME280;30989;52.078;21.014;2024-01-11T08:05:03;162414.41;;;-5.11;100.00
45255;BME280;30989;52.078;21.014;2024-01-11T08:07:30;162414.41;;;-5.11;100.00
45255;BME280;30989;52.078;21.014;2024-01-11T08:09:56;162427.66;;;-5.06;100.00
45255;BME280;30989;52.078;21.014;2024-01-11T08:12:21;162427.66;;;-5.06;100.00
45255;BME280;30989;52.078;21.014;2024-01-11T08:14:47;162419.72;;;-5.09;100.00
45255;BME280;30989;52.078;21.014;2024-01-11T08:17:14;162423.69;;;-5.07;100.00
45255;BME280;30989;52.078;21.014;2024-01-11T08:19:40;162422.38;;;-5.08;100.00
45255;BME280;30989;52.078;21.014;2024-01-11T08:22:09;162422.38;;;-5.08;100.00
45255;BME280;30989;52.078;21.014;2024-01-11T08:24:35;162427.66;;;-5.06;100.00
45255;BME280;30989;52.078;21.014;2024-01-11T08:27:02;162440.91;;;-5.01;100.00
45255;BME280;30989;52.078;21.014;2024-01-11T08:29:30;162435.59;;;-5.03;100.00
45255;BME280;30989;52.078;21.014;2024-01-11T08:31:55;162446.19;;;-4.99;100.00
45255;BME280;30989;52.078;21.014;2024-01-11T08:34:22;162443.56;;;-5.00;100.00
45255;BME280;30989;52.078;21.014;2024-01-11T08:36:47;162442.22;;;-5.00;100.00
45255;BME280;30989;52.078;21.014;2024-01-11T08:39:13;162467.41;;;-4.91;100.00
45255;BME280;30989;52.078;21.014;2024-01-11T08:41:39;162475.34;;;-4.88;100.00
45255;BME280;30989;52.078;21.014;2024-01-11T08:44:05;162456.81;;;-4.95;100.00
45255;BME280;30989;52.078;21.014;2024-01-11T08:46:34;162485.94;;;-4.83;100.00
45255;BME280;30989;52.078;21.014;2024-01-11T08:49:00;162491.25;;;-4.81;100.00
45255;BME280;30989;52.078;21.014;2024-01-11T08:51:29;162491.25;;;-4.81;100.00
45255;BME280;30989;52.078;21.014;2024-01-11T08:53:54;162501.84;;;-4.77;100.00
45255;BME280;30989;52.078;21.014;2024-01-11T08:56:19;162507.16;;;-4.75;100.00
45255;BME280;30989;52.078;21.014;2024-01-11T08:58:48;162500.53;;;-4.78;100.00
45255;BME280;30989;52.078;21.014;2024-01-11T09:01:14;162507.16;;;-4.75;100.00
45255;BME280;30989;52.078;21.014;2024-01-11T09:03:40;162497.88;;;-4.79;100.00
45255;BME280;30989;52.078;21.014;2024-01-11T09:06:08;162505.81;;;-4.76;100.00
45255;BME280;30989;52.078;21.014;2024-01-11T09:08:34;162509.78;;;-4.74;100.00
45255;BME280;30989;52.078;21.014;2024-01-11T09:11:00;162499.19;;;-4.78;100.00
45255;BME280;30989;52.078;21.014;2024-01-11T09:13:26;162508.47;;;-4.75;100.00
45255;BME280;30989;52.078;21.014;2024-01-11T09:15:52;162512.44;;;-4.73;100.00
45255;BME280;30989;52.078;21.014;2024-01-11T09:18:19;162532.31;;;-4.66;100.00
45255;BME280;30989;52.078;21.014;2024-01-11T09:20:44;162544.25;;;-4.61;100.00
45255;BME280;30989;52.078;21.014;2024-01-11T09:23:11;162558.81;;;-4.56;100.00
45255;BME280;30989;52.078;21.014;2024-01-11T09:25:37;162564.13;;;-4.53;100.00
45255;BME280;30989;52.078;21.014;2024-01-11T09:28:02;162576.03;;;-4.49;100.00
45255;BME280;30989;52.078;21.014;2024-01-11T09:30:29;162585.31;;;-4.45;100.00
45255;BME280;30989;52.078;21.014;2024-01-11T09:32:54;162573.38;;;-4.50;100.00
45255;BME280;30989;52.078;21.014;2024-01-11T09:35:22;162593.28;;;-4.42;100.00
45255;BME280;30989;52.078;21.014;2024-01-11T09:37:48;162591.94;;;-4.43;100.00
45255;BME280;30989;52.078;21.014;2024-01-11T09:40:14;162576.03;;;-4.49;100.00
45255;BME280;30989;52.078;21.014;2024-01-11T09:42:40;162591.94;;;-4.43;100.00
45255;BME280;30989;52.078;21.014;2024-01-11T09:45:16;162609.16;;;-4.36;100.00
45255;BME280;30989;52.078;21.014;2024-01-11T09:47:43;162607.84;;;-4.37;100.00
45255;BME280;30989;52.078;21.014;2024-01-11T09:50:11;162629.03;;;-4.29;100.00
45255;BME280;30989;52.078;21.014;2024-01-11T09:52:45;162658.22;;;-4.17;100.00
45255;BME280;30989;52.078;21.014;2024-01-11T09:55:12;162647.59;;;-4.22;100.00
45255;BME280;30989;52.078;21.014;2024-01-11T09:57:46;162692.66;;;-4.04;100.00
45255;BME280;30989;52.078;21.014;2024-01-11T10:00:22;162690.03;;;-4.05;100.00
45255;BME280;30989;52.078;21.014;2024-01-11T10:02:48;162705.94;;;-3.99;100.00
45255;BME280;30989;52.078;21.014;2024-01-11T10:05:13;162700.63;;;-4.01;100.00
45255;BME280;30989;52.078;21.014;2024-01-11T10:07:39;162674.09;;;-4.11;100.00
45255;BME280;30989;52.078;21.014;2024-01-11T10:10:08;162686.03;;;-4.07;100.00
45255;BME280;30989;52.078;21.014;2024-01-11T10:12:37;162696.66;;;-4.03;100.00
45255;BME280;30989;52.078;21.014;2024-01-11T10:15:09;162721.84;;;-3.93;100.00
45255;BME280;30989;52.078;21.014;2024-01-11T10:17:43;162721.84;;;-3.93;100.00
45255;BME280;30989;52.078;21.014;2024-01-11T10:20:11;162709.91;;;-3.98;100.00
45255;BME280;30989;52.078;21.014;2024-01-11T10:22:39;162696.66;;;-4.03;100.00
45255;BME280;30989;52.078;21.014;2024-01-11T10:25:13;162695.31;;;-4.03;100.00
45255;BME280;30989;52.078;21.014;2024-01-11T10:27:41;162696.66;;;-4.03;100.00
45255;BME280;30989;52.078;21.014;2024-01-11T10:30:11;162732.44;;;-3.89;100.00
45255;BME280;30989;52.078;21.014;2024-01-11T10:32:43;162753.66;;;-3.81;100.00
45255;BME280;30989;52.078;21.014;2024-01-11T10:35:10;162769.56;;;-3.75;100.00
45255;BME280;30989;52.078;21.014;2024-01-11T10:37:36;162812.00;;;-3.59;100.00
45255;BME280;30989;52.078;21.014;2024-01-11T10:40:08;162838.50;;;-3.48;100.00
45255;BME280;30989;52.078;21.014;2024-01-11T10:42:45;162850.44;;;-3.44;100.00
45255;BME280;30989;52.078;21.014;2024-01-11T10:45:16;162854.44;;;-3.42;100.00
45255;BME280;30989;52.078;21.014;2024-01-11T10:47:51;162841.16;;;-3.47;100.00
45255;BME280;30989;52.078;21.014;2024-01-11T10:50:19;162830.56;;;-3.51;100.00
45255;BME280;30989;52.078;21.014;2024-01-11T10:53:01;162830.56;;;-3.51;100.00
45255;BME280;30989;52.078;21.014;2024-01-11T10:55:31;162822.59;;;-3.54;100.00
45255;BME280;30989;52.078;21.014;2024-01-11T10:57:58;162834.53;;;-3.50;100.00
45255;BME280;30989;52.078;21.014;2024-01-11T11:00:28;162841.16;;;-3.47;100.00
45255;BME280;30989;52.078;21.014;2024-01-11T11:02:55;162846.47;;;-3.45;100.00
45255;BME280;30989;52.078;21.014;2024-01-11T11:05:21;162854.44;;;-3.42;100.00
45255;BME280;30989;52.078;21.014;2024-01-11T11:07:58;162866.38;;;-3.38;100.00
45255;BME280;30989;52.078;21.014;2024-01-11T11:10:27;162875.66;;;-3.34;100.00
45255;BME280;30989;52.078;21.014;2024-01-11T11:12:54;162866.38;;;-3.38;100.00
45255;BME280;30989;52.078;21.014;2024-01-11T11:15:19;162875.66;;;-3.34;100.00
45255;BME280;30989;52.078;21.014;2024-01-11T11:17:49;162891.56;;;-3.28;100.00
45255;BME280;30989;52.078;21.014;2024-01-11T11:20:15;162895.53;;;-3.27;100.00
45255;BME280;30989;52.078;21.014;2024-01-11T11:22:41;162887.59;;;-3.30;100.00
45255;BME280;30989;52.078;21.014;2024-01-11T11:25:11;162883.59;;;-3.31;100.00
45255;BME280;30989;52.078;21.014;2024-01-11T11:27:49;162861.06;;;-3.40;100.00
45255;BME280;30989;52.078;21.014;2024-01-11T11:30:27;162875.66;;;-3.34;100.00
45255;BME280;30989;52.078;21.014;2024-01-11T11:32:55;162866.38;;;-3.38;100.00
45255;BME280;30989;52.078;21.014;2024-01-11T11:35:24;162880.94;;;-3.32;100.00
45255;BME280;30989;52.078;21.014;2024-01-11T11:37:55;162899.53;;;-3.25;100.00
45255;BME280;30989;52.078;21.014;2024-01-11T11:40:38;162907.47;;;-3.22;100.00
45255;BME280;30989;52.078;21.014;2024-01-11T11:43:08;162910.13;;;-3.21;100.00
45255;BME280;30989;52.078;21.014;2024-01-11T11:45:35;162908.81;;;-3.21;100.00
45255;BME280;30989;52.078;21.014;2024-01-11T11:48:01;162904.81;;;-3.23;100.00
45255;BME280;30989;52.078;21.014;2024-01-11T11:50:26;162918.09;;;-3.18;100.00
45255;BME280;30989;52.078;21.014;2024-01-11T11:52:55;162911.47;;;-3.20;100.00
45255;BME280;30989;52.078;21.014;2024-01-11T11:55:26;162907.47;;;-3.22;100.00
45255;BME280;30989;52.078;21.014;2024-01-11T11:57:52;162888.91;;;-3.29;100.00
45255;BME280;30989;52.078;21.014;2024-01-11T12:00:19;162878.31;;;-3.33;100.00
45255;BME280;30989;52.078;21.014;2024-01-11T12:02:48;162908.81;;;-3.21;100.00
45255;BME280;30989;52.078;21.014;2024-01-11T12:05:22;162902.19;;;-3.24;100.00
45255;BME280;30989;52.078;21.014;2024-01-11T12:07:51;162902.19;;;-3.24;100.00
45255;BME280;30989;52.078;21.014;2024-01-11T12:10:17;162888.91;;;-3.29;100.00
45255;BME280;30989;52.078;21.014;2024-01-11T12:12:42;162911.47;;;-3.20;100.00
45255;BME280;30989;52.078;21.014;2024-01-11T12:15:08;162908.81;;;-3.21;100.00
45255;BME280;30989;52.078;21.014;2024-01-11T12:17:35;162898.19;;;-3.26;100.00
45255;BME280;30989;52.078;21.014;2024-01-11T12:20:04;162894.22;;;-3.27;100.00
45255;BME280;30989;52.078;21.014;2024-01-11T12:22:30;162912.78;;;-3.20;100.00
45255;BME280;30989;52.078;21.014;2024-01-11T12:24:58;162916.75;;;-3.18;100.00
45255;BME280;30989;52.078;21.014;2024-01-11T12:27:24;162920.75;;;-3.17;100.00
45255;BME280;30989;52.078;21.014;2024-01-11T12:29:52;162915.44;;;-3.19;100.00